Jose R. Sojo, Argentina
Current Conditions -  °F | °C
As of 5:00 AM on Tuesday 21 Oct 2014 (Local Time) from SAEZ Reporting Station
Clear Clear  
Wind Chill: 64°   Ceiling: Unl
Heat Index: 64°   Visibility: 6mi
Dew Point: 54°   Wind: 3mph
Humidity: 68%   Direction: 50°NE
Pressure: 30.06"   Gusts: NA
Location:  35.69°S, 59.59°W
Report Text: SAEZ 210800Z 05003KT CAVOK 18/12 Q1018
Loading
Personal Weather Stations






























Interactive Weather Map
Tropical Storm Tracking
New forecast layout! Learn more

10-Day Weather Forecast

Advertisements
Track Severe Weather on mobile